Geronimo, Texas
Current Conditions -  °F | °C
As of 3:51 PM on Friday 28 Nov 2014 (Local Time) from KBAZ Reporting Station
Clear Clear  
Wind Chill: 73°   Ceiling: Unl
Heat Index: 73°   Visibility: 10mi
Dew Point: 47°   Wind: 14mph
Humidity: 39%   Direction: 200°SSW
Pressure: 30.12"   Gusts: NA
Location:  29.66°N, 97.97°W
Report Text: KBAZ 282151Z 20012KT 10SM CLR 23/08 A3012 RMK AO2 SLP197 T02280083
Loading
Personal Weather Stations






























Interactive Weather Map New forecast layout! Learn more

10-Day Weather Forecast

Advertisements
Track Severe Weather on mobile